Time;durP1;ratioP1;P1;durP2;ratioP2;P2;SDS_P1;SDS_P2;PMS_P1;PMS_P2;Temp;Humidity;BMP_temperature;BMP_pressure;BME280_temperature;BME280_humidity;BME280_pressure;Samples;Min_cycle;Max_cycle;Signal;HPM_P1;HPM_P2
2021/12/22 00:00:34;;;;;;;2.55;2.00;;;18.20;41.60;;;;;;5034961;28;20044;-53
2021/12/22 00:03:01;;;;;;;3.67;1.60;;;18.20;41.60;;;;;;5033652;28;20091;-51
2021/12/22 00:05:30;;;;;;;2.63;1.63;;;18.20;41.70;;;;;;5033503;28;20060;-51
2021/12/22 00:07:59;;;;;;;1.92;1.40;;;18.20;41.70;;;;;;5039600;28;20505;-50
2021/12/22 00:10:26;;;;;;;2.95;2.00;;;18.10;41.60;;;;;;5035512;28;20049;-49
2021/12/22 00:12:53;;;;;;;4.25;1.73;;;18.10;41.60;;;;;;5031983;28;20045;-48
2021/12/22 00:15:20;;;;;;;3.33;1.40;;;18.10;42.20;;;;;;5043260;28;20041;-49
2021/12/22 00:17:47;;;;;;;2.15;1.23;;;18.10;41.70;;;;;;5039690;28;20068;-50
2021/12/22 00:20:15;;;;;;;3.22;1.85;;;18.10;41.60;;;;;;5035340;28;20050;-51
2021/12/22 00:22:43;;;;;;;1.58;1.15;;;18.00;41.70;;;;;;5035999;28;20049;-51
2021/12/22 00:25:12;;;;;;;3.40;1.73;;;18.00;41.70;;;;;;5034067;28;20040;-49
2021/12/22 00:27:40;;;;;;;1.90;1.80;;;18.00;41.70;;;;;;5036697;28;20068;-51
2021/12/22 00:30:08;;;;;;;2.67;1.70;;;18.00;41.70;;;;;;5029768;28;20156;-49
2021/12/22 00:32:37;;;;;;;3.72;1.73;;;18.00;41.70;;;;;;5036481;28;20223;-48
2021/12/22 00:35:05;;;;;;;1.38;1.27;;;18.00;41.70;;;;;;5040048;28;20098;-52
2021/12/22 00:37:33;;;;;;;6.75;3.10;;;18.00;41.70;;;;;;5036437;28;20552;-52
2021/12/22 00:40:00;;;;;;;5.97;1.58;;;18.00;41.70;;;;;;5044884;28;20043;-51
2021/12/22 00:42:29;;;;;;;3.28;2.13;;;17.90;41.70;;;;;;5042471;28;20078;-49
2021/12/22 00:44:56;;;;;;;2.72;1.75;;;17.90;41.70;;;;;;5045850;28;20064;-53
2021/12/22 00:47:26;;;;;;;2.42;1.52;;;17.90;41.70;;;;;;5033791;28;20099;-49
2021/12/22 00:49:53;;;;;;;2.17;1.52;;;17.90;41.70;;;;;;5036422;28;20037;-49
2021/12/22 00:52:20;;;;;;;2.25;1.50;;;17.90;41.70;;;;;;5034312;28;20061;-49
2021/12/22 00:54:48;;;;;;;3.00;1.67;;;17.80;41.70;;;;;;5030166;28;20033;-46
2021/12/22 00:57:16;;;;;;;1.77;1.13;;;17.90;41.80;;;;;;5029621;28;20147;-49
2021/12/22 00:59:46;;;;;;;2.25;1.70;;;17.90;41.80;;;;;;5034537;28;20099;-49
2021/12/22 01:02:15;;;;;;;3.67;1.00;;;17.90;41.80;;;;;;5032770;28;20048;-53
2021/12/22 01:04:43;;;;;;;2.38;1.20;;;17.80;41.80;;;;;;5032682;28;20132;-50
2021/12/22 01:07:11;;;;;;;1.95;1.50;;;17.80;41.80;;;;;;5032563;28;20033;-48
2021/12/22 01:09:38;;;;;;;3.15;1.80;;;17.80;41.80;;;;;;5033148;28;20044;-53
2021/12/22 01:12:06;;;;;;;1.65;1.00;;;17.80;41.70;;;;;;5032366;28;20060;-46
2021/12/22 01:14:34;;;;;;;4.00;1.27;;;17.80;41.70;;;;;;5034591;28;20042;-50
2021/12/22 01:17:03;;;;;;;1.23;1.10;;;17.80;41.70;;;;;;5042218;28;20064;-49
2021/12/22 01:19:38;;;;;;;2.63;1.42;;;17.80;41.70;;;;;;5033616;28;20045;-53
2021/12/22 01:22:19;;;;;;;3.15;1.20;;;17.80;41.70;;;;;;5030399;28;20048;-50
2021/12/22 01:24:49;;;;;;;3.78;1.27;;;17.70;41.70;;;;;;5042192;28;20292;-49
2021/12/22 01:27:22;;;;;;;2.28;1.90;;;17.70;41.70;;;;;;5034191;28;20045;-53
2021/12/22 01:29:51;;;;;;;1.67;1.17;;;17.70;41.70;;;;;;5033285;28;20070;-52
2021/12/22 01:32:19;;;;;;;1.75;1.25;;;17.70;41.70;;;;;;5033642;28;20053;-51
2021/12/22 01:34:46;;;;;;;1.88;1.50;;;17.70;41.70;;;;;;5037488;28;20060;-49
2021/12/22 01:37:13;;;;;;;1.20;1.00;;;17.70;41.70;;;;;;5046081;28;20052;-48
2021/12/22 01:39:41;;;;;;;1.63;1.52;;;17.70;41.70;;;;;;5044897;28;20057;-49
2021/12/22 01:42:08;;;;;;;2.95;1.33;;;17.70;41.70;;;;;;5031847;28;20041;-51
2021/12/22 01:44:49;;;;;;;1.92;1.35;;;17.70;41.80;;;;;;5039029;28;20060;-52
2021/12/22 01:50:10;;;;;;;2.63;1.42;;;17.70;41.70;;;;;;5035085;28;20040;-51
2021/12/22 01:52:37;;;;;;;2.85;1.33;;;17.70;41.70;;;;;;5036204;28;20041;-47
2021/12/22 01:55:14;;;;;;;0.93;0.90;;;17.70;41.70;;;;;;5035916;28;20272;-49
2021/12/22 01:57:46;;;;;;;2.95;1.17;;;17.60;41.70;;;;;;5033379;28;20132;-49
2021/12/22 02:00:15;;;;;;;2.85;1.63;;;17.70;41.70;;;;;;5034832;28;20418;-49
2021/12/22 02:02:42;;;;;;;3.17;1.33;;;17.70;41.70;;;;;;5042975;28;20383;-48
2021/12/22 02:05:11;;;;;;;1.25;1.10;;;17.60;41.70;;;;;;5042046;28;20051;-48
2021/12/22 02:07:38;;;;;;;1.25;0.95;;;17.60;41.60;;;;;;5038779;28;20516;-50
2021/12/22 02:10:20;;;;;;;1.25;1.02;;;17.60;41.70;;;;;;5036824;28;20048;-52
2021/12/22 02:12:51;;;;;;;1.35;0.80;;;17.60;41.60;;;;;;5033937;28;20050;-48
2021/12/22 02:15:18;;;;;;;1.35;0.80;;;17.60;41.60;;;;;;5034538;28;20069;-54
2021/12/22 02:17:45;;;;;;;1.52;1.00;;;17.60;41.70;;;;;;5039992;28;20049;-51
2021/12/22 02:20:14;;;;;;;1.60;1.15;;;17.60;41.60;;;;;;5035485;28;20049;-51
2021/12/22 02:22:43;;;;;;;1.42;1.33;;;17.60;41.60;;;;;;5035556;28;20033;-50
2021/12/22 02:25:16;;;;;;;2.65;1.80;;;17.60;41.60;;;;;;5035313;28;20053;-47
2021/12/22 02:27:49;;;;;;;2.42;1.70;;;17.60;41.60;;;;;;5063339;28;20486;-53
2021/12/22 02:30:23;;;;;;;3.15;1.63;;;17.60;41.60;;;;;;5034899;28;20052;-50
2021/12/22 02:33:18;;;;;;;3.15;1.38;;;17.60;41.60;;;;;;5039070;28;20076;-49
2021/12/22 02:35:55;;;;;;;1.45;1.27;;;17.60;41.60;;;;;;5038124;28;20045;-52
2021/12/22 02:38:22;;;;;;;3.13;1.45;;;17.60;41.70;;;;;;5043814;28;20051;-50
2021/12/22 02:40:52;;;;;;;1.58;1.10;;;17.60;41.70;;;;;;5042404;28;20041;-45
2021/12/22 02:43:22;;;;;;;3.28;1.50;;;17.60;41.60;;;;;;5042662;28;20055;-49
2021/12/22 02:45:50;;;;;;;4.28;2.25;;;17.60;41.60;;;;;;5035618;28;20041;-49
2021/12/22 02:48:17;;;;;;;2.00;1.05;;;17.60;41.60;;;;;;5033412;28;20045;-52
2021/12/22 02:50:46;;;;;;;1.60;0.90;;;17.60;42.20;;;;;;5036281;28;20399;-47
2021/12/22 02:53:14;;;;;;;1.65;0.82;;;17.60;41.60;;;;;;5040944;28;20132;-50
2021/12/22 02:55:47;;;;;;;2.92;1.52;;;17.60;41.60;;;;;;5036757;28;20120;-47
2021/12/22 02:58:18;;;;;;;1.95;1.73;;;17.60;41.60;;;;;;5033626;28;20079;-51
2021/12/22 03:01:04;;;;;;;1.63;0.98;;;17.60;41.60;;;;;;5034739;28;20041;-50
2021/12/22 03:03:48;;;;;;;2.95;0.98;;;17.60;41.60;;;;;;5040904;28;20049;-56
2021/12/22 03:06:25;;;;;;;1.63;1.13;;;17.50;41.50;;;;;;5046821;28;20505;-49
2021/12/22 03:08:52;;;;;;;2.15;1.40;;;17.50;41.60;;;;;;5035275;28;20050;-52
2021/12/22 03:11:19;;;;;;;2.40;1.52;;;17.50;41.60;;;;;;5041790;28;20037;-50
2021/12/22 03:13:46;;;;;;;3.17;1.10;;;17.50;41.50;;;;;;5037273;28;20132;-51
2021/12/22 03:16:13;;;;;;;1.40;1.27;;;17.50;41.50;;;;;;5032595;28;20037;-52
2021/12/22 03:18:40;;;;;;;1.10;1.00;;;17.50;41.80;;;;;;5031847;28;20041;-49
2021/12/22 03:21:18;;;;;;;1.23;0.82;;;17.50;41.50;;;;;;5040098;28;20418;-53
2021/12/22 03:23:47;;;;;;;2.05;1.20;;;17.50;41.50;;;;;;5037213;28;20046;-51
2021/12/22 03:26:16;;;;;;;1.65;1.55;;;17.50;41.50;;;;;;5038162;28;20053;-51
2021/12/22 03:28:44;;;;;;;1.67;0.98;;;17.50;41.50;;;;;;5042032;28;20069;-50
2021/12/22 03:31:12;;;;;;;1.98;1.48;;;17.50;41.50;;;;;;5046773;28;20044;-50
2021/12/22 03:33:39;;;;;;;1.98;1.35;;;17.50;41.50;;;;;;5031620;28;20115;-51
2021/12/22 03:36:07;;;;;;;1.77;1.02;;;17.50;41.50;;;;;;5033843;28;20429;-50
2021/12/22 03:38:35;;;;;;;2.38;1.25;;;17.50;41.50;;;;;;5045905;28;20439;-49
2021/12/22 03:41:06;;;;;;;2.35;1.42;;;17.50;41.50;;;;;;5038035;28;20087;-51
2021/12/22 03:43:33;;;;;;;2.92;0.95;;;17.50;41.50;;;;;;5034937;28;20422;-52
2021/12/22 03:46:01;;;;;;;1.75;0.85;;;17.50;41.50;;;;;;5033830;28;20052;-49
2021/12/22 03:48:28;;;;;;;1.77;1.33;;;17.50;41.50;;;;;;5031455;28;20096;-49
2021/12/22 03:50:55;;;;;;;1.35;1.25;;;17.50;41.50;;;;;;5033578;28;20056;-47
2021/12/22 03:53:23;;;;;;;1.95;1.30;;;17.50;41.50;;;;;;5039151;28;20056;-49
2021/12/22 03:55:50;;;;;;;1.25;1.15;;;17.50;41.50;;;;;;5034499;28;20046;-50
2021/12/22 03:58:20;;;;;;;3.58;1.63;;;17.50;41.50;;;;;;5031993;28;20049;-48
2021/12/22 04:00:50;;;;;;;2.97;0.93;;;17.50;41.50;;;;;;5033408;28;20041;-52
2021/12/22 04:03:20;;;;;;;1.85;0.90;;;17.50;41.50;;;;;;5035374;28;20047;-51
2021/12/22 04:05:47;;;;;;;3.90;1.95;;;17.50;41.80;;;;;;5034319;28;20422;-52
2021/12/22 04:08:18;;;;;;;1.42;0.98;;;17.40;41.40;;;;;;5035775;28;20406;-50
2021/12/22 04:10:45;;;;;;;1.83;1.60;;;17.50;41.50;;;;;;5038642;28;20513;-50
2021/12/22 04:13:13;;;;;;;1.95;1.85;;;17.40;41.40;;;;;;5034902;28;20036;-48
2021/12/22 04:15:43;;;;;;;3.55;1.30;;;17.40;41.40;;;;;;5044745;28;20128;-51
2021/12/22 04:18:10;;;;;;;1.67;1.48;;;17.50;42.00;;;;;;5044473;28;20033;-48
2021/12/22 04:20:37;;;;;;;1.60;1.42;;;17.40;41.30;;;;;;5040245;28;20443;-49
2021/12/22 04:23:04;;;;;;;2.22;1.30;;;17.40;41.30;;;;;;5035511;28;20046;-49
2021/12/22 04:25:33;;;;;;;1.50;1.40;;;17.40;41.40;;;;;;5034020;28;20072;-49
2021/12/22 04:28:05;;;;;;;1.25;1.13;;;17.40;41.30;;;;;;5034052;28;20095;-51
2021/12/22 04:30:34;;;;;;;2.28;1.25;;;17.40;41.30;;;;;;5035727;28;20091;-50
2021/12/22 04:33:03;;;;;;;2.70;1.52;;;17.40;41.40;;;;;;5034419;28;20045;-49
2021/12/22 04:35:30;;;;;;;3.42;1.10;;;17.40;41.30;;;;;;5036723;28;20048;-53
2021/12/22 04:37:57;;;;;;;1.60;1.20;;;17.40;41.30;;;;;;5040155;28;20383;-50
2021/12/22 04:40:25;;;;;;;5.38;1.35;;;17.30;41.30;;;;;;5035123;28;20047;-47
2021/12/22 04:42:52;;;;;;;2.28;1.40;;;17.40;41.30;;;;;;5031806;28;20375;-52
2021/12/22 04:45:19;;;;;;;4.55;1.85;;;17.30;41.30;;;;;;5031862;28;20045;-47
2021/12/22 04:47:48;;;;;;;1.92;1.40;;;17.30;41.30;;;;;;5046641;28;20045;-46
2021/12/22 04:50:19;;;;;;;2.75;1.58;;;17.30;41.30;;;;;;5034949;28;20108;-46
2021/12/22 04:52:54;;;;;;;3.80;1.67;;;17.30;41.30;;;;;;5036892;28;20052;-46
2021/12/22 04:55:21;;;;;;;1.67;1.25;;;17.30;41.20;;;;;;5034573;28;20041;-51
2021/12/22 04:57:48;;;;;;;2.75;1.95;;;17.30;41.20;;;;;;5030435;28;20127;-46
2021/12/22 05:00:17;;;;;;;2.25;1.70;;;17.30;41.20;;;;;;5029376;28;20049;-51
2021/12/22 05:02:44;;;;;;;1.75;1.63;;;17.30;41.30;;;;;;5034677;28;20041;-51
2021/12/22 05:05:11;;;;;;;1.02;0.95;;;17.30;41.20;;;;;;5039937;28;20059;-53
2021/12/22 05:07:40;;;;;;;2.42;1.42;;;17.30;41.20;;;;;;5042655;28;20033;-46
2021/12/22 05:10:08;;;;;;;1.75;1.38;;;17.30;41.20;;;;;;5032784;28;20037;-47
2021/12/22 05:12:35;;;;;;;4.18;1.90;;;17.30;41.20;;;;;;5033502;28;20413;-50
2021/12/22 05:15:02;;;;;;;2.45;1.77;;;17.30;41.20;;;;;;5032402;28;20053;-47
2021/12/22 05:17:49;;;;;;;4.28;1.85;;;17.20;41.20;;;;;;5033608;28;20482;-48
2021/12/22 05:20:18;;;;;;;1.98;1.23;;;17.20;41.20;;;;;;5038071;28;20049;-48
2021/12/22 05:22:46;;;;;;;3.60;1.70;;;17.20;41.20;;;;;;5034042;28;20049;-46
2021/12/22 05:25:14;;;;;;;1.77;1.45;;;17.20;41.20;;;;;;5030377;28;20041;-49
2021/12/22 05:27:41;;;;;;;2.22;1.00;;;17.20;41.20;;;;;;5029274;28;20143;-47
2021/12/22 05:30:10;;;;;;;1.58;1.48;;;17.30;41.20;;;;;;5035722;28;20061;-46
2021/12/22 05:32:37;;;;;;;3.50;1.50;;;17.20;41.10;;;;;;5040366;28;20056;-49
2021/12/22 05:35:08;;;;;;;3.47;1.58;;;17.20;41.10;;;;;;5043576;28;20048;-47
2021/12/22 05:37:36;;;;;;;2.50;1.30;;;17.20;41.20;;;;;;5039928;28;20128;-48
2021/12/22 05:40:06;;;;;;;1.38;0.95;;;17.20;41.20;;;;;;5038147;28;20029;-46
2021/12/22 05:42:34;;;;;;;2.20;1.67;;;17.20;41.20;;;;;;5034895;28;20333;-49
2021/12/22 05:45:00;;;;;;;2.28;1.58;;;17.20;41.20;;;;;;5038306;28;20061;-46
2021/12/22 05:47:27;;;;;;;1.45;1.00;;;17.20;41.20;;;;;;5043309;28;20052;-46
2021/12/22 05:49:55;;;;;;;2.85;1.77;;;17.20;41.20;;;;;;5039460;28;20163;-52
2021/12/22 05:52:22;;;;;;;1.58;1.20;;;17.20;41.20;;;;;;5036220;28;20128;-49
2021/12/22 05:54:49;;;;;;;2.03;1.27;;;17.20;41.20;;;;;;5036639;28;20076;-49
2021/12/22 05:57:17;;;;;;;1.65;1.25;;;17.20;41.20;;;;;;5039732;28;20042;-50
2021/12/22 05:59:45;;;;;;;1.65;1.42;;;17.20;41.20;;;;;;5038799;28;20045;-48
2021/12/22 06:02:11;;;;;;;1.55;1.45;;;17.20;41.20;;;;;;5039728;28;20048;-50
2021/12/22 06:04:38;;;;;;;2.08;1.20;;;17.20;41.20;;;;;;5040823;28;20417;-48
2021/12/22 06:07:06;;;;;;;1.30;1.13;;;17.20;41.20;;;;;;5044885;28;20069;-48
2021/12/22 06:09:33;;;;;;;1.58;1.48;;;17.20;41.20;;;;;;5034949;28;20052;-49
2021/12/22 06:12:00;;;;;;;3.47;1.40;;;17.20;41.20;;;;;;5038524;28;20584;-49
2021/12/22 06:14:28;;;;;;;2.53;1.67;;;17.20;41.10;;;;;;5035336;28;20038;-48
2021/12/22 06:16:55;;;;;;;2.20;1.23;;;17.10;41.10;;;;;;5035778;28;20537;-46
2021/12/22 06:19:22;;;;;;;2.50;1.50;;;17.20;41.20;;;;;;5036792;28;20703;-51
2021/12/22 06:21:50;;;;;;;1.88;1.25;;;17.10;41.10;;;;;;5034886;28;20044;-50
2021/12/22 06:24:18;;;;;;;1.70;1.42;;;17.10;41.10;;;;;;5034095;28;20549;-49
2021/12/22 06:26:45;;;;;;;2.97;1.33;;;17.10;41.10;;;;;;5035731;28;20128;-53
2021/12/22 06:29:12;;;;;;;1.25;0.95;;;17.10;41.10;;;;;;5040391;28;20461;-49
2021/12/22 06:31:40;;;;;;;2.13;1.75;;;17.10;41.10;;;;;;5036032;28;20045;-50
2021/12/22 06:34:07;;;;;;;2.13;1.98;;;17.10;41.10;;;;;;5033352;28;20033;-48
2021/12/22 06:36:35;;;;;;;1.73;1.55;;;17.10;41.20;;;;;;5034054;28;20543;-49
2021/12/22 06:39:02;;;;;;;2.10;1.10;;;17.10;41.10;;;;;;5040155;28;20045;-51
2021/12/22 06:41:32;;;;;;;1.35;1.25;;;17.10;41.10;;;;;;5035902;28;20041;-54
2021/12/22 06:43:59;;;;;;;1.98;1.65;;;17.10;41.10;;;;;;5036657;28;20060;-49
2021/12/22 06:46:26;;;;;;;5.53;1.05;;;17.10;41.10;;;;;;5037104;28;20037;-47
2021/12/22 06:48:55;;;;;;;2.33;1.45;;;17.10;41.10;;;;;;5036617;28;20053;-51
2021/12/22 06:51:22;;;;;;;2.03;1.00;;;17.10;41.10;;;;;;5033615;28;20045;-51
2021/12/22 06:53:49;;;;;;;4.00;1.40;;;17.10;41.10;;;;;;5036863;28;20048;-46
2021/12/22 06:56:17;;;;;;;1.63;1.05;;;17.10;41.10;;;;;;5041599;28;20056;-49
2021/12/22 06:58:44;;;;;;;2.42;1.17;;;17.10;41.10;;;;;;5037532;28;20041;-49
2021/12/22 07:01:16;;;;;;;2.00;1.40;;;17.00;41.00;;;;;;5033773;28;20051;-52
2021/12/22 07:03:44;;;;;;;1.67;1.27;;;17.10;41.10;;;;;;5043179;28;20099;-47
2021/12/22 07:06:12;;;;;;;2.30;1.40;;;17.00;41.00;;;;;;5039037;28;20136;-48
2021/12/22 07:08:39;;;;;;;4.53;1.65;;;17.10;41.10;;;;;;5043182;28;20045;-47
2021/12/22 07:11:07;;;;;;;2.15;1.50;;;17.00;41.00;;;;;;5038037;28;20053;-46
2021/12/22 07:13:34;;;;;;;2.08;1.92;;;17.00;41.00;;;;;;5038524;28;20085;-51
2021/12/22 07:16:01;;;;;;;2.67;1.13;;;17.10;41.00;;;;;;5038026;28;20047;-53
2021/12/22 07:18:31;;;;;;;4.85;1.98;;;17.10;41.00;;;;;;5045409;28;20045;-54
2021/12/22 07:20:59;;;;;;;1.42;1.20;;;17.00;41.00;;;;;;5037064;28;20041;-49
2021/12/22 07:23:28;;;;;;;2.40;1.20;;;17.00;41.00;;;;;;5035969;28;20133;-49
2021/12/22 07:25:55;;;;;;;2.55;1.67;;;17.00;41.00;;;;;;5033983;28;20037;-46
2021/12/22 07:28:22;;;;;;;2.92;1.40;;;17.00;41.00;;;;;;5035086;28;20646;-54
2021/12/22 07:30:50;;;;;;;1.63;1.52;;;17.00;41.00;;;;;;5044122;28;20133;-52
2021/12/22 07:33:18;;;;;;;1.60;1.20;;;17.00;41.00;;;;;;5032085;28;20132;-50
2021/12/22 07:35:51;;;;;;;2.88;1.20;;;17.00;41.00;;;;;;5033711;28;20047;-50
2021/12/22 07:38:32;;;;;;;1.75;1.42;;;17.00;41.00;;;;;;5039934;28;20052;-48
2021/12/22 07:41:00;;;;;;;1.48;1.17;;;17.00;41.00;;;;;;5039466;28;20107;-52
2021/12/22 07:43:28;;;;;;;2.47;1.42;;;17.00;41.00;;;;;;5040871;28;20502;-53
2021/12/22 07:45:57;;;;;;;1.90;1.65;;;17.00;41.00;;;;;;5033325;28;20044;-49
2021/12/22 07:48:25;;;;;;;1.48;1.08;;;17.00;41.00;;;;;;5035161;28;20115;-52
2021/12/22 07:50:52;;;;;;;5.03;1.40;;;17.00;41.10;;;;;;5035759;28;20553;-51
2021/12/22 07:53:20;;;;;;;1.30;1.20;;;17.00;41.00;;;;;;5035076;28;20049;-49
2021/12/22 07:55:52;;;;;;;1.60;1.38;;;17.00;41.00;;;;;;5038628;28;20048;-53
2021/12/22 07:58:19;;;;;;;3.55;1.58;;;17.00;41.00;;;;;;5035117;28;20051;-46
2021/12/22 08:00:47;;;;;;;2.17;1.17;;;17.00;41.00;;;;;;5031877;28;20037;-53
2021/12/22 08:03:14;;;;;;;0.70;0.65;;;16.90;41.00;;;;;;5032051;28;20084;-51
2021/12/22 08:05:41;;;;;;;1.60;1.50;;;17.00;41.00;;;;;;5039761;28;20049;-48
2021/12/22 08:08:08;;;;;;;1.45;0.88;;;17.00;41.10;;;;;;5044307;28;20410;-47
2021/12/22 08:10:36;;;;;;;2.92;2.33;;;17.00;41.00;;;;;;5044156;28;20128;-47
2021/12/22 08:13:05;;;;;;;2.70;1.95;;;16.90;41.00;;;;;;5034195;28;20091;-51
2021/12/22 08:15:32;;;;;;;1.55;1.40;;;16.90;41.00;;;;;;5035740;28;20472;-46
2021/12/22 08:17:59;;;;;;;2.30;1.80;;;16.90;41.00;;;;;;5034988;28;20136;-46
2021/12/22 08:20:26;;;;;;;1.67;1.13;;;17.00;41.00;;;;;;5036574;28;20052;-50
2021/12/22 08:22:54;;;;;;;1.80;1.65;;;16.90;41.00;;;;;;5039571;28;20142;-53
2021/12/22 08:25:22;;;;;;;1.80;1.40;;;16.90;41.00;;;;;;5036406;28;20091;-48
2021/12/22 08:27:50;;;;;;;3.13;1.05;;;16.90;41.00;;;;;;5032042;28;20079;-46
2021/12/22 08:30:18;;;;;;;2.50;1.23;;;16.90;41.00;;;;;;5040657;28;20137;-49
2021/12/22 08:32:46;;;;;;;3.15;1.55;;;16.90;41.00;;;;;;5034229;28;20053;-52
2021/12/22 08:35:16;;;;;;;2.72;1.92;;;16.90;41.00;;;;;;5033199;28;20072;-47
2021/12/22 08:40:29;;;;;;;1.95;1.45;;;16.90;41.00;;;;;;5032934;28;20055;-48
2021/12/22 08:42:56;;;;;;;1.65;1.55;;;16.90;41.00;;;;;;5030600;28;20140;-47
2021/12/22 08:45:24;;;;;;;2.65;1.67;;;16.90;41.00;;;;;;5030276;28;20041;-50
2021/12/22 08:47:51;;;;;;;1.95;1.80;;;16.90;41.00;;;;;;5037051;28;20053;-47
2021/12/22 08:50:20;;;;;;;2.80;1.98;;;16.90;40.90;;;;;;5033707;28;20083;-45
2021/12/22 08:52:47;;;;;;;1.85;1.58;;;16.90;41.00;;;;;;5036187;28;20069;-54
2021/12/22 08:55:15;;;;;;;1.55;1.42;;;16.90;40.90;;;;;;5032873;28;20124;-50
2021/12/22 08:57:43;;;;;;;2.65;1.77;;;16.90;40.90;;;;;;5033716;28;20116;-52
2021/12/22 09:00:12;;;;;;;4.20;1.45;;;16.90;40.90;;;;;;5028561;28;20056;-52
2021/12/22 09:02:41;;;;;;;1.90;1.25;;;16.90;40.90;;;;;;5034584;28;20044;-51
2021/12/22 09:05:09;;;;;;;2.63;1.88;;;16.90;40.90;;;;;;5039746;28;20037;-47
2021/12/22 09:07:36;;;;;;;2.45;1.75;;;16.90;40.90;;;;;;5043861;28;20048;-49
2021/12/22 09:10:05;;;;;;;4.50;1.40;;;16.90;40.90;;;;;;5043458;28;20099;-48
2021/12/22 09:12:32;;;;;;;2.80;1.70;;;16.90;40.90;;;;;;5031885;28;20045;-48
2021/12/22 09:14:59;;;;;;;2.10;1.48;;;16.90;40.90;;;;;;5038658;28;20061;-49
2021/12/22 09:17:26;;;;;;;4.28;1.83;;;16.90;40.90;;;;;;5038222;28;20037;-46
2021/12/22 09:19:55;;;;;;;3.22;1.95;;;16.90;40.90;;;;;;5041511;28;20124;-49
2021/12/22 09:22:23;;;;;;;2.00;1.90;;;16.90;40.90;;;;;;5034534;28;20037;-54
2021/12/22 09:24:50;;;;;;;2.78;1.85;;;16.90;40.90;;;;;;5035299;28;20092;-52
2021/12/22 09:27:17;;;;;;;3.78;2.15;;;16.90;40.90;;;;;;5032057;28;20103;-46
2021/12/22 09:29:45;;;;;;;2.85;1.83;;;16.90;40.80;;;;;;5035830;28;20042;-46
2021/12/22 09:32:15;;;;;;;2.50;1.65;;;16.90;40.80;;;;;;5039974;28;20095;-49
2021/12/22 09:34:43;;;;;;;3.90;1.70;;;16.90;40.80;;;;;;5037512;28;20465;-49
2021/12/22 09:37:12;;;;;;;3.63;1.73;;;16.90;40.80;;;;;;5033531;28;20036;-47
2021/12/22 09:39:39;;;;;;;3.88;2.13;;;16.90;40.80;;;;;;5034021;28;20041;-50
2021/12/22 09:42:08;;;;;;;3.28;2.17;;;16.90;40.80;;;;;;5038376;28;20045;-50
2021/12/22 09:44:43;;;;;;;4.75;2.03;;;16.90;40.80;;;;;;5032142;28;20057;-46
2021/12/22 09:47:10;;;;;;;2.58;1.75;;;16.90;40.80;;;;;;5037345;28;20332;-51
2021/12/22 09:49:59;;;;;;;2.40;1.58;;;16.90;40.80;;;;;;5033070;28;20481;-48
2021/12/22 09:52:27;;;;;;;5.68;2.70;;;16.90;40.80;;;;;;5032478;28;20462;-48
2021/12/22 09:54:59;;;;;;;3.03;2.22;;;16.90;41.40;;;;;;5044271;28;20071;-48
2021/12/22 09:57:28;;;;;;;5.05;2.08;;;16.90;40.80;;;;;;5033557;28;20049;-52
2021/12/22 09:59:58;;;;;;;4.80;2.25;;;16.90;40.80;;;;;;5032968;28;20045;-46
2021/12/22 10:02:29;;;;;;;6.00;1.73;;;16.90;40.80;;;;;;5033735;28;20052;-48
2021/12/22 10:04:57;;;;;;;4.90;2.25;;;16.90;40.80;;;;;;5038250;28;20146;-46
2021/12/22 10:07:27;;;;;;;6.28;3.10;;;16.90;40.80;;;;;;5033811;28;20041;-47
2021/12/22 10:10:02;;;;;;;3.25;2.85;;;16.90;40.80;;;;;;5043349;28;20124;-46
2021/12/22 10:12:29;;;;;;;4.45;1.70;;;16.90;40.80;;;;;;5032603;28;20046;-46
2021/12/22 10:14:58;;;;;;;8.35;2.90;;;16.90;40.80;;;;;;5037386;28;20056;-46
2021/12/22 10:17:31;;;;;;;2.97;2.30;;;16.90;40.80;;;;;;5038702;28;20052;-48
2021/12/22 10:19:59;;;;;;;5.65;2.67;;;16.90;40.80;;;;;;5038520;28;20049;-46
2021/12/22 10:22:32;;;;;;;4.28;2.67;;;16.90;40.80;;;;;;5038479;28;20037;-50
2021/12/22 10:25:10;;;;;;;3.65;2.63;;;16.90;40.80;;;;;;5038234;28;20048;-53
2021/12/22 10:27:39;;;;;;;5.03;2.95;;;16.90;40.70;;;;;;5034401;28;20075;-47
2021/12/22 10:30:26;;;;;;;3.60;2.45;;;16.90;40.70;;;;;;5034721;28;20037;-52
2021/12/22 10:33:06;;;;;;;2.22;2.03;;;16.90;40.70;;;;;;5040769;28;20132;-48
2021/12/22 10:35:35;;;;;;;5.75;2.03;;;16.90;40.70;;;;;;5038930;28;20126;-46
2021/12/22 10:38:03;;;;;;;4.68;2.30;;;16.90;40.70;;;;;;5039930;28;20095;-46
2021/12/22 10:40:33;;;;;;;4.22;2.53;;;16.90;40.70;;;;;;5038960;28;20121;-51
2021/12/22 10:43:01;;;;;;;4.13;2.42;;;16.90;40.60;;;;;;5047407;28;20681;-45
2021/12/22 10:45:30;;;;;;;3.00;2.42;;;16.90;40.70;;;;;;5034837;28;20096;-45
2021/12/22 10:50:44;;;;;;;5.70;2.13;;;16.90;40.60;;;;;;5040088;28;20049;-47
2021/12/22 10:53:15;;;;;;;3.80;1.98;;;16.90;40.60;;;;;;5038738;28;20072;-48
2021/12/22 10:55:45;;;;;;;3.55;2.55;;;16.90;40.60;;;;;;5037940;28;20525;-47
2021/12/22 10:58:20;;;;;;;3.20;2.08;;;16.90;40.60;;;;;;5035126;28;20041;-53
2021/12/22 11:01:08;;;;;;;2.97;1.77;;;16.90;40.60;;;;;;5033352;28;20135;-46
2021/12/22 11:03:41;;;;;;;2.42;2.22;;;16.90;40.60;;;;;;5034599;28;20047;-49
2021/12/22 11:06:12;;;;;;;5.45;2.50;;;16.90;40.60;;;;;;5035618;28;20072;-46
2021/12/22 11:08:40;;;;;;;3.15;2.10;;;17.00;40.60;;;;;;5045691;28;20049;-45
2021/12/22 11:11:15;;;;;;;3.35;2.67;;;16.90;40.50;;;;;;5039578;28;20049;-45
2021/12/22 11:13:43;;;;;;;3.28;1.98;;;17.00;40.50;;;;;;5038485;28;20055;-46
2021/12/22 11:16:14;;;;;;;3.42;2.70;;;16.90;40.50;;;;;;5036291;28;20456;-44
2021/12/22 11:18:42;;;;;;;2.97;1.80;;;16.90;40.50;;;;;;5029730;28;20049;-48
2021/12/22 11:21:13;;;;;;;3.22;1.92;;;17.00;40.50;;;;;;5034086;28;20041;-52
2021/12/22 11:23:40;;;;;;;4.85;2.97;;;17.00;40.50;;;;;;5041416;28;20495;-45
2021/12/22 11:26:08;;;;;;;6.25;3.42;;;16.90;40.40;;;;;;5036426;28;20049;-46
2021/12/22 11:28:37;;;;;;;6.53;2.40;;;17.00;40.40;;;;;;5035705;28;20079;-47
2021/12/22 11:31:06;;;;;;;4.30;3.03;;;16.90;40.30;;;;;;5037204;28;20040;-51
2021/12/22 11:33:35;;;;;;;3.55;2.45;;;16.90;40.30;;;;;;5036916;28;20821;-46
2021/12/22 11:36:04;;;;;;;5.00;3.03;;;16.90;40.30;;;;;;5033898;28;20037;-47
2021/12/22 11:38:33;;;;;;;4.70;3.17;;;16.90;40.30;;;;;;5038340;28;20041;-52
2021/12/22 11:41:11;;;;;;;4.78;2.75;;;16.90;40.30;;;;;;5041151;28;20033;-47
2021/12/22 11:43:40;;;;;;;5.07;2.22;;;16.90;40.30;;;;;;5037824;28;20067;-50
2021/12/22 11:46:11;;;;;;;3.92;2.15;;;16.90;40.30;;;;;;5033892;28;20048;-46
2021/12/22 11:48:42;;;;;;;5.78;2.45;;;16.90;40.30;;;;;;5035325;28;20056;-49
2021/12/22 11:51:22;;;;;;;4.32;2.88;;;16.90;40.30;;;;;;5048198;28;20588;-46
2021/12/22 11:53:51;;;;;;;3.63;2.35;;;16.90;40.20;;;;;;5035720;28;20041;-45
2021/12/22 11:56:43;;;;;;;4.03;2.05;;;16.90;40.30;;;;;;5048635;28;20088;-47
2021/12/22 11:59:36;;;;;;;5.38;2.92;;;16.90;40.20;;;;;;5035940;28;20160;-49
2021/12/22 12:02:17;;;;;;;3.78;2.58;;;16.90;40.20;;;;;;5033942;28;20042;-51
2021/12/22 12:04:45;;;;;;;2.65;2.08;;;16.90;40.30;;;;;;5038257;28;20139;-45
2021/12/22 12:07:32;;;;;;;2.83;1.98;;;16.90;40.30;;;;;;5034087;28;20044;-52
2021/12/22 12:10:33;;;;;;;2.63;2.20;;;16.90;40.30;;;;;;5044122;28;20084;-50
2021/12/22 12:13:05;;;;;;;3.53;2.28;;;16.90;40.30;;;;;;5033747;28;20037;-52
2021/12/22 12:21:51;;;;;;;2.75;2.17;;;16.90;40.30;;;;;;5033477;28;20037;-49
2021/12/22 12:24:35;;;;;;;4.53;2.55;;;16.90;40.30;;;;;;5034873;28;20116;-52
2021/12/22 12:27:39;;;;;;;2.67;2.05;;;16.90;40.30;;;;;;5034558;28;20075;-50
2021/12/22 12:30:13;;;;;;;2.67;2.45;;;16.90;40.30;;;;;;5032916;28;20049;-45
2021/12/22 12:32:59;;;;;;;3.70;2.63;;;16.90;40.30;;;;;;5040401;28;20064;-47
2021/12/22 12:35:28;;;;;;;3.22;2.67;;;16.90;40.30;;;;;;5035369;28;20045;-53
2021/12/22 12:38:08;;;;;;;2.22;2.03;;;16.80;40.20;;;;;;5036379;28;20123;-48
2021/12/22 12:41:12;;;;;;;8.13;3.60;;;16.80;40.20;;;;;;5036432;28;20047;-48
2021/12/22 12:44:06;;;;;;;5.97;2.40;;;16.90;40.20;;;;;;5035702;28;20114;-48
2021/12/22 12:46:49;;;;;;;3.55;2.10;;;16.80;40.20;;;;;;5035014;28;20030;-47
2021/12/22 12:49:36;;;;;;;3.53;2.10;;;16.80;40.20;;;;;;5034739;28;20052;-48
2021/12/22 12:52:07;;;;;;;;;;;16.80;40.20;;;;;;5036748;28;20515;-50
2021/12/22 12:54:39;;;;;;;2.85;2.13;;;16.80;40.20;;;;;;5031728;28;20036;-47
2021/12/22 12:57:37;;;;;;;4.47;2.45;;;16.70;40.30;;;;;;5034118;28;20076;-48
2021/12/22 13:00:08;;;;;;;3.50;2.28;;;16.80;40.20;;;;;;5032423;28;20146;-47
2021/12/22 13:02:37;;;;;;;4.22;2.53;;;16.70;40.80;;;;;;5036845;28;20395;-49
2021/12/22 13:05:14;;;;;;;4.28;2.05;;;16.80;40.40;;;;;;5037107;28;20065;-49
2021/12/22 13:07:43;;;;;;;4.43;2.17;;;16.80;40.20;;;;;;5037657;28;20048;-48
2021/12/22 13:10:15;;;;;;;4.63;3.10;;;16.80;40.20;;;;;;5041893;28;20034;-49
2021/12/22 13:13:00;;;;;;;1.83;1.30;;;16.80;40.20;;;;;;5030854;28;20055;-46
2021/12/22 13:18:20;;;;;;;4.75;2.10;;;16.70;40.10;;;;;;5027999;28;20056;-49
2021/12/22 13:20:50;;;;;;;3.03;1.85;;;16.80;40.20;;;;;;5032959;28;20399;-50